Time;durP1;ratioP1;P1;durP2;ratioP2;P2;SDS_P1;SDS_P2;PMS_P1;PMS_P2;Temp;Humidity;BMP_temperature;BMP_pressure;BME280_temperature;BME280_humidity;BME280_pressure;Samples;Min_cycle;Max_cycle;Signal;HPM_P1;HPM_P2
2021/01/14 00:00:24;;;;;;;10.30;1.45;;;28.20;99.90;;;;;;5067432;22;20056;-79
2021/01/14 00:02:51;;;;;;;5.50;1.52;;;28.30;99.90;;;;;;5054168;28;20498;-80
2021/01/14 00:05:19;;;;;;;11.38;2.15;;;28.40;99.90;;;;;;5052099;28;20043;-82
2021/01/14 00:07:49;;;;;;;7.30;1.52;;;28.40;99.90;;;;;;5051111;28;20028;-82
2021/01/14 00:10:17;;;;;;;5.18;1.33;;;28.50;99.90;;;;;;5053151;28;20036;-80
2021/01/14 00:12:45;;;;;;;4.82;0.95;;;28.60;99.90;;;;;;5032548;28;20064;-83
2021/01/14 00:15:15;;;;;;;6.28;1.00;;;28.90;99.90;;;;;;5050577;28;20461;-83
2021/01/14 00:17:44;;;;;;;7.63;1.38;;;28.90;99.90;;;;;;5085078;22;20117;-83
2021/01/14 00:20:13;;;;;;;6.03;1.42;;;28.90;99.90;;;;;;5056363;28;20021;-82
2021/01/14 00:22:41;;;;;;;11.45;2.05;;;28.90;99.90;;;;;;5049707;28;20087;-83
2021/01/14 00:25:10;;;;;;;7.25;1.40;;;29.00;99.90;;;;;;5057309;28;20028;-83
2021/01/14 00:27:38;;;;;;;6.45;1.58;;;29.10;99.90;;;;;;5049356;28;20126;-83
2021/01/14 00:30:12;;;;;;;9.23;1.58;;;29.30;99.90;;;;;;5072185;28;20447;-84
2021/01/14 00:32:40;;;;;;;6.75;1.33;;;29.50;99.90;;;;;;5067552;28;20025;-85
2021/01/14 00:35:08;;;;;;;6.30;1.88;;;29.80;99.90;;;;;;5065007;28;20078;-87
2021/01/14 00:37:51;;;;;;;5.25;1.25;;;29.90;99.90;;;;;;5066933;28;20037;-86
2021/01/14 00:40:20;;;;;;;6.18;1.45;;;29.90;99.90;;;;;;5052215;28;20032;-84
2021/01/14 00:42:54;;;;;;;5.15;1.60;;;29.80;99.90;;;;;;5044362;28;20033;-84
2021/01/14 00:45:21;;;;;;;6.15;1.58;;;29.80;99.90;;;;;;5044003;28;20036;-84
2021/01/14 00:47:49;;;;;;;6.75;1.45;;;29.80;99.90;;;;;;5050041;28;20481;-85
2021/01/14 00:50:17;;;;;;;6.20;1.45;;;29.90;99.90;;;;;;5068325;22;20056;-84
2021/01/14 00:52:44;;;;;;;9.90;1.50;;;30.00;99.90;;;;;;5043382;28;20062;-84
2021/01/14 00:55:15;;;;;;;5.55;1.52;;;30.10;99.90;;;;;;5048398;28;20052;-82
2021/01/14 00:57:42;;;;;;;17.35;2.10;;;30.20;99.90;;;;;;5048544;28;20119;-83
2021/01/14 01:00:21;;;;;;;7.85;1.98;;;30.60;99.90;;;;;;5030393;28;20028;-87
2021/01/14 01:02:50;;;;;;;8.57;1.90;;;30.60;99.90;;;;;;5011537;28;20024;-87
2021/01/14 01:05:19;;;;;;;9.75;1.70;;;30.70;99.90;;;;;;5030188;28;20034;-85
2021/01/14 01:07:57;;;;;;;10.07;2.50;;;30.70;99.90;;;;;;5029445;28;20049;-85
2021/01/14 01:10:26;;;;;;;12.20;1.88;;;30.90;99.90;;;;;;5023752;28;20029;-86
2021/01/14 01:12:55;;;;;;;11.48;2.30;;;30.90;99.90;;;;;;5020239;28;20072;-86
2021/01/14 01:15:22;;;;;;;7.93;1.42;;;30.90;99.90;;;;;;5027027;28;20029;-86
2021/01/14 01:17:50;;;;;;;7.88;1.83;;;30.90;99.90;;;;;;5019319;28;20026;-82
2021/01/14 01:20:17;;;;;;;6.20;1.15;;;31.10;99.90;;;;;;5026087;28;20529;-88
2021/01/14 01:22:44;;;;;;;11.52;1.65;;;31.60;99.90;;;;;;5019342;28;20037;-85
2021/01/14 01:25:12;;;;;;;8.13;1.92;;;31.80;99.90;;;;;;5025469;28;20026;-86
2021/01/14 01:27:39;;;;;;;6.43;1.45;;;31.80;99.90;;;;;;5028316;28;20364;-79
2021/01/14 01:30:08;;;;;;;11.05;2.20;;;31.80;99.90;;;;;;5031315;28;20390;-77
2021/01/14 01:32:35;;;;;;;8.70;2.50;;;31.80;99.90;;;;;;5026660;28;20033;-78
2021/01/14 01:35:03;;;;;;;11.43;2.42;;;31.70;99.90;;;;;;5025794;28;20512;-81
2021/01/14 01:37:31;;;;;;;16.52;2.42;;;32.00;99.90;;;;;;5026469;28;20437;-81
2021/01/14 01:39:58;;;;;;;11.38;1.98;;;32.20;99.90;;;;;;5027996;28;20079;-81
2021/01/14 01:42:25;;;;;;;8.32;1.35;;;32.40;99.90;;;;;;5049440;28;20543;-87
2021/01/14 01:44:52;;;;;;;9.27;1.83;;;32.30;99.90;;;;;;5030480;28;20030;-87
2021/01/14 01:47:20;;;;;;;12.90;2.35;;;32.10;99.90;;;;;;5022927;28;20105;-85
2021/01/14 01:49:47;;;;;;;8.43;1.83;;;32.10;99.90;;;;;;5013199;28;20590;-85
2021/01/14 01:52:15;;;;;;;9.68;1.67;;;32.50;99.90;;;;;;5084442;22;20139;-84
2021/01/14 01:54:42;;;;;;;9.02;1.80;;;32.40;99.90;;;;;;5053304;22;20073;-84
2021/01/14 01:57:11;;;;;;;9.68;2.28;;;32.10;99.90;;;;;;5030519;28;20048;-86
2021/01/14 01:59:38;;;;;;;11.70;1.80;;;32.10;99.90;;;;;;5034654;22;20103;-83
2021/01/14 02:02:29;;;;;;;8.05;1.95;;;31.60;99.90;;;;;;5011425;28;20077;-86
2021/01/14 02:04:57;;;;;;;10.18;2.03;;;31.60;99.90;;;;;;5031135;28;20037;-83
2021/01/14 02:07:30;;;;;;;5.15;1.17;;;31.60;99.90;;;;;;5018562;23;20058;-83
2021/01/14 02:09:58;;;;;;;11.13;1.88;;;31.30;99.90;;;;;;5031033;28;20120;-83
2021/01/14 02:12:36;;;;;;;11.70;1.80;;;31.90;99.90;;;;;;5028058;28;20017;-84
2021/01/14 02:15:04;;;;;;;8.35;1.75;;;32.10;99.90;;;;;;5013560;28;20036;-84
2021/01/14 02:17:31;;;;;;;11.00;2.03;;;32.40;99.90;;;;;;5029402;28;20030;-83
2021/01/14 02:20:02;;;;;;;10.07;1.88;;;32.20;99.90;;;;;;4993683;28;20030;-83
2021/01/14 02:22:38;;;;;;;8.63;1.85;;;32.10;99.90;;;;;;5011517;28;20048;-82
2021/01/14 02:25:17;;;;;;;10.25;1.73;;;31.60;99.90;;;;;;5076004;22;20058;-84
2021/01/14 02:27:45;;;;;;;10.00;2.00;;;31.50;99.90;;;;;;5067962;28;20012;-82
2021/01/14 02:30:14;;;;;;;9.38;2.30;;;32.10;99.90;;;;;;5066665;28;20468;-84
2021/01/14 02:32:44;;;;;;;6.75;1.45;;;32.00;99.90;;;;;;5048448;28;20102;-85
2021/01/14 02:35:12;;;;;;;9.95;1.80;;;32.40;99.90;;;;;;5049962;28;20482;-85
2021/01/14 02:37:39;;;;;;;10.20;2.30;;;32.00;99.90;;;;;;5048070;28;20029;-86
2021/01/14 02:40:07;;;;;;;8.98;1.25;;;32.00;99.90;;;;;;5049961;28;20498;-85
2021/01/14 02:42:35;;;;;;;6.72;2.47;;;32.20;99.90;;;;;;5049027;28;20114;-84
2021/01/14 02:45:03;;;;;;;6.72;2.13;;;32.00;99.90;;;;;;5048232;28;20031;-83
2021/01/14 02:47:34;;;;;;;5.10;1.67;;;32.20;99.90;;;;;;5050133;28;20013;-82
2021/01/14 02:50:05;;;;;;;11.13;1.90;;;32.30;99.90;;;;;;5053049;28;20037;-82
2021/01/14 02:52:36;;;;;;;8.57;2.33;;;32.10;99.90;;;;;;5052527;28;20027;-86
2021/01/14 02:55:05;;;;;;;5.68;2.15;;;31.90;99.90;;;;;;5054931;28;20085;-86
2021/01/14 02:57:33;;;;;;;9.52;1.50;;;32.10;99.90;;;;;;5061123;22;20057;-86
2021/01/14 03:00:00;;;;;;;11.88;2.60;;;32.20;99.90;;;;;;5049591;28;20044;-85
2021/01/14 03:02:29;;;;;;;7.75;1.40;;;32.20;99.90;;;;;;5044362;28;20079;-86
2021/01/14 03:04:56;;;;;;;8.18;1.75;;;32.10;99.90;;;;;;5043022;28;20079;-87
2021/01/14 03:07:24;;;;;;;6.45;1.42;;;31.80;99.90;;;;;;5043271;28;20105;-86
2021/01/14 03:09:51;;;;;;;7.63;1.50;;;31.90;99.90;;;;;;5051322;28;20456;-86
2021/01/14 03:12:18;;;;;;;16.63;2.28;;;31.50;99.90;;;;;;5049438;28;20045;-85
2021/01/14 03:14:45;;;;;;;8.82;1.45;;;31.40;99.90;;;;;;5039743;28;20033;-82
2021/01/14 03:17:13;;;;;;;9.27;1.75;;;31.30;99.90;;;;;;5045334;28;20474;-85
2021/01/14 03:19:40;;;;;;;5.97;1.20;;;31.20;99.90;;;;;;5044078;28;20041;-83
2021/01/14 03:22:07;;;;;;;10.15;1.80;;;31.30;99.90;;;;;;5039641;28;20025;-84
2021/01/14 03:24:35;;;;;;;10.20;1.40;;;31.30;99.90;;;;;;5045835;28;20029;-84
2021/01/14 03:27:02;;;;;;;8.70;1.67;;;31.60;99.90;;;;;;5042548;28;20029;-84
2021/01/14 03:29:29;;;;;;;13.25;1.55;;;31.20;99.90;;;;;;5038156;28;20045;-85
2021/01/14 03:32:04;;;;;;;8.75;1.35;;;31.60;99.90;;;;;;5051836;28;20070;-82
2021/01/14 03:34:31;;;;;;;10.70;1.63;;;31.20;99.90;;;;;;5041902;28;20103;-83
2021/01/14 03:37:00;;;;;;;8.57;1.67;;;30.80;99.90;;;;;;5019051;28;20029;-87
2021/01/14 03:39:30;;;;;;;12.35;2.35;;;30.70;99.90;;;;;;5037304;28;20111;-85
2021/01/14 03:41:59;;;;;;;8.13;1.55;;;30.80;99.90;;;;;;5043621;28;20071;-85
2021/01/14 03:44:26;;;;;;;6.60;1.33;;;30.70;99.90;;;;;;5037120;28;20107;-84
2021/01/14 03:46:53;;;;;;;11.10;1.67;;;30.90;99.90;;;;;;5040697;28;20025;-84
2021/01/14 03:49:21;;;;;;;10.65;1.77;;;31.10;99.90;;;;;;5039379;28;20068;-84
2021/01/14 03:51:48;;;;;;;8.43;1.88;;;30.60;99.90;;;;;;5032712;28;20437;-85
2021/01/14 03:54:21;;;;;;;7.03;1.77;;;30.70;99.90;;;;;;5030363;28;20065;-84
2021/01/14 03:56:49;;;;;;;11.43;1.70;;;30.50;99.90;;;;;;5053306;28;20489;-83
2021/01/14 03:59:16;;;;;;;10.20;1.85;;;30.50;99.90;;;;;;5075311;22;20973;-84
2021/01/14 04:01:43;;;;;;;8.52;2.30;;;30.40;99.90;;;;;;5067114;22;20038;-86
2021/01/14 04:04:10;;;;;;;10.05;1.65;;;30.00;99.90;;;;;;5053469;28;20033;-86
2021/01/14 04:06:39;;;;;;;12.38;2.15;;;30.00;99.90;;;;;;5069452;22;20506;-83
2021/01/14 04:09:07;;;;;;;8.73;1.58;;;29.90;99.90;;;;;;5043342;28;20088;-84
2021/01/14 04:11:34;;;;;;;9.43;1.60;;;30.00;99.90;;;;;;5030798;28;20026;-80
2021/01/14 04:14:02;;;;;;;9.80;2.08;;;30.00;99.90;;;;;;5030688;28;20025;-86
2021/01/14 04:16:29;;;;;;;17.05;2.08;;;30.10;99.90;;;;;;5086140;22;20143;-87
2021/01/14 04:18:56;;;;;;;10.10;1.45;;;30.00;99.90;;;;;;5060733;28;20610;-83
2021/01/14 04:21:26;;;;;;;12.88;1.30;;;30.10;99.90;;;;;;5066975;28;20013;-84
2021/01/14 04:23:53;;;;;;;10.18;1.42;;;30.00;99.90;;;;;;5039286;28;20025;-85
2021/01/14 04:26:20;;;;;;;7.03;1.60;;;30.20;99.90;;;;;;5039526;28;20017;-86
2021/01/14 04:28:47;;;;;;;7.30;1.85;;;30.50;99.90;;;;;;5050436;28;20434;-87
2021/01/14 04:31:15;;;;;;;7.57;1.52;;;30.50;99.90;;;;;;5070104;22;20028;-85
2021/01/14 04:33:42;;;;;;;6.63;1.52;;;30.60;99.90;;;;;;5038877;28;20104;-81
2021/01/14 04:36:09;;;;;;;7.03;1.08;;;30.70;99.90;;;;;;5048530;28;20485;-81
2021/01/14 04:38:37;;;;;;;6.22;1.40;;;30.70;99.90;;;;;;5038866;28;20029;-82
2021/01/14 04:41:05;;;;;;;11.18;1.65;;;30.70;99.90;;;;;;5030955;28;20045;-87
2021/01/14 04:43:35;;;;;;;8.57;1.10;;;30.60;99.90;;;;;;5021236;28;20025;-81
2021/01/14 04:46:07;;;;;;;8.48;1.23;;;30.50;99.90;;;;;;5029775;28;20208;-78
2021/01/14 04:48:37;;;;;;;9.98;1.80;;;30.50;99.90;;;;;;5024002;28;20049;-80
2021/01/14 04:51:10;;;;;;;5.45;1.25;;;30.50;99.90;;;;;;5027562;28;20112;-82
2021/01/14 04:53:40;;;;;;;7.53;1.40;;;30.60;99.90;;;;;;5025941;28;20026;-82
2021/01/14 04:56:10;;;;;;;7.93;1.70;;;30.60;99.90;;;;;;5019705;28;20034;-85
2021/01/14 04:58:45;;;;;;;5.65;0.85;;;30.50;99.90;;;;;;5024094;28;20060;-80
2021/01/14 05:01:20;;;;;;;6.45;1.25;;;30.40;99.90;;;;;;5028244;28;20083;-82
2021/01/14 05:03:49;;;;;;;6.55;1.15;;;30.20;99.90;;;;;;5025596;28;20078;-84
2021/01/14 05:06:26;;;;;;;9.15;1.70;;;30.30;99.90;;;;;;5068373;23;20052;-79
2021/01/14 05:09:23;;;;;;;5.80;1.83;;;30.30;99.90;;;;;;5065642;28;20028;-82
2021/01/14 05:11:57;;;;;;;4.75;1.60;;;30.30;99.90;;;;;;5064833;28;20033;-80
2021/01/14 05:14:24;;;;;;;9.60;1.35;;;30.30;99.90;;;;;;5061896;28;20032;-81
2021/01/14 05:16:52;;;;;;;6.55;1.45;;;30.20;99.90;;;;;;5064766;28;20389;-83
2021/01/14 05:19:20;;;;;;;7.93;1.30;;;30.20;99.90;;;;;;5048301;28;20025;-81
2021/01/14 05:21:49;;;;;;;6.45;1.58;;;30.30;99.90;;;;;;5069379;28;20036;-81
2021/01/14 05:24:17;;;;;;;8.23;1.75;;;30.30;99.90;;;;;;5060973;28;20059;-81
2021/01/14 05:26:47;;;;;;;8.65;1.67;;;30.30;99.90;;;;;;5065475;28;20366;-81
2021/01/14 05:29:20;;;;;;;6.80;1.40;;;30.40;99.90;;;;;;5061535;28;20089;-81
2021/01/14 05:31:49;;;;;;;4.70;1.38;;;30.50;99.90;;;;;;5062521;28;20505;-81
2021/01/14 05:34:18;;;;;;;10.45;1.33;;;30.50;99.90;;;;;;5064054;28;20397;-80
2021/01/14 05:37:04;;;;;;;9.02;1.85;;;30.40;99.90;;;;;;5066868;28;20017;-81
2021/01/14 05:39:41;;;;;;;6.65;1.20;;;30.40;99.90;;;;;;5058377;28;20034;-82
2021/01/14 05:42:12;;;;;;;6.75;1.30;;;30.00;99.90;;;;;;5067365;28;20123;-81
2021/01/14 05:44:44;;;;;;;8.27;1.63;;;29.70;99.90;;;;;;5060481;28;20393;-81
2021/01/14 05:47:25;;;;;;;9.75;2.17;;;29.50;99.90;;;;;;5061871;28;20048;-82
2021/01/14 05:50:03;;;;;;;9.13;2.28;;;29.50;99.90;;;;;;5061293;28;20044;-82
2021/01/14 05:52:32;;;;;;;7.13;1.35;;;29.60;99.90;;;;;;5065832;28;20392;-83
2021/01/14 05:55:16;;;;;;;3.75;1.20;;;29.40;99.90;;;;;;5043640;28;20067;-83
2021/01/14 05:58:03;;;;;;;7.03;1.88;;;29.30;99.90;;;;;;5052574;28;20530;-84
2021/01/14 06:00:37;;;;;;;10.55;1.38;;;29.30;99.90;;;;;;5070552;28;20169;-84
2021/01/14 06:03:23;;;;;;;8.75;1.73;;;29.40;99.90;;;;;;5062771;28;20036;-86
2021/01/14 06:05:51;;;;;;;7.90;1.52;;;29.70;99.90;;;;;;5074785;22;20053;-90
2021/01/14 06:08:26;;;;;;;9.05;1.85;;;29.90;99.90;;;;;;5093032;22;20512;-90
2021/01/14 06:10:54;;;;;;;6.45;1.63;;;30.10;99.90;;;;;;5002506;28;20045;-89
2021/01/14 06:13:41;;;;;;;5.32;1.58;;;30.20;99.90;;;;;;5025306;23;20037;-86
2021/01/14 06:16:09;;;;;;;7.40;1.48;;;30.10;99.90;;;;;;5039078;28;20065;-84
2021/01/14 06:18:36;;;;;;;6.68;1.48;;;30.10;99.90;;;;;;5059167;28;20155;-86
2021/01/14 06:21:03;;;;;;;7.63;1.15;;;30.10;99.90;;;;;;5033142;28;20032;-85
2021/01/14 06:23:45;;;;;;;9.30;1.77;;;30.00;99.90;;;;;;5070116;23;20040;-87
2021/01/14 06:26:25;;;;;;;9.43;1.38;;;30.00;99.90;;;;;;5072488;28;20031;-85
2021/01/14 06:28:52;;;;;;;8.70;1.92;;;30.00;99.90;;;;;;5059044;28;20110;-85
2021/01/14 06:31:26;;;;;;;5.57;1.55;;;30.00;99.90;;;;;;5074982;28;20481;-80
2021/01/14 06:33:55;;;;;;;6.20;1.38;;;30.00;99.90;;;;;;5048093;28;20191;-78
2021/01/14 06:36:33;;;;;;;9.75;1.75;;;30.10;99.90;;;;;;5052117;28;20215;-85
2021/01/14 06:39:12;;;;;;;11.85;2.10;;;30.10;99.90;;;;;;5069184;22;20127;-85
2021/01/14 06:41:41;;;;;;;6.25;1.77;;;30.00;99.90;;;;;;5024656;28;20025;-87
2021/01/14 06:44:11;;;;;;;12.32;1.38;;;30.10;99.90;;;;;;5045345;28;20036;-84
2021/01/14 06:46:39;;;;;;;10.00;1.58;;;30.00;99.90;;;;;;5017615;28;20044;-85
2021/01/14 06:49:11;;;;;;;7.07;1.40;;;30.00;99.90;;;;;;5052320;28;20032;-89
2021/01/14 06:51:52;;;;;;;8.43;1.30;;;29.80;99.90;;;;;;5049516;28;20060;-87
2021/01/14 06:54:20;;;;;;;8.85;1.80;;;29.60;99.90;;;;;;5049197;28;20102;-90
2021/01/14 06:57:03;;;;;;;8.25;1.52;;;29.30;99.90;;;;;;5049774;28;20029;-86
2021/01/14 06:59:31;;;;;;;9.10;1.50;;;29.10;99.90;;;;;;5050765;28;20017;-83
2021/01/14 07:02:36;;;;;;;7.18;1.42;;;28.90;99.90;;;;;;5054141;28;20481;-86
2021/01/14 07:05:05;;;;;;;6.20;1.38;;;28.80;99.90;;;;;;5022225;28;20041;-86
2021/01/14 07:08:18;;;;;;;12.30;2.25;;;28.70;99.90;;;;;;5034206;28;20163;-90
2021/01/14 07:11:01;;;;;;;9.60;1.65;;;28.70;99.90;;;;;;5016667;28;20037;-85
2021/01/14 07:13:38;;;;;;;6.47;1.25;;;28.90;99.90;;;;;;5057304;23;20079;-85
2021/01/14 07:16:06;;;;;;;4.68;1.00;;;29.00;99.90;;;;;;5050531;28;20481;-85
2021/01/14 07:18:35;;;;;;;4.43;1.08;;;29.10;99.90;;;;;;5052715;28;20078;-87
2021/01/14 07:21:30;;;;;;;7.93;1.83;;;29.10;99.90;;;;;;5043880;28;20034;-90
2021/01/14 07:24:09;;;;;;;12.38;2.22;;;29.30;99.90;;;;;;5049695;28;20516;-94
2021/01/14 07:26:43;;;;;;;8.13;1.90;;;29.20;99.90;;;;;;5056662;28;20071;-92
2021/01/14 07:29:11;;;;;;;9.43;1.98;;;29.00;99.90;;;;;;5055820;28;20049;-94
2021/01/14 07:31:48;;;;;;;11.00;1.73;;;29.00;99.90;;;;;;5056446;28;20086;-94
2021/01/14 07:34:46;;;;;;;13.77;3.25;;;28.80;99.90;;;;;;5041346;28;20041;-96
2021/01/14 07:37:18;;;;;;;22.73;5.00;;;28.10;99.90;;;;;;5035500;28;20590;-92
2021/01/14 07:39:47;;;;;;;28.92;6.30;;;27.60;99.90;;;;;;5034825;28;20507;-94
2021/01/14 07:42:31;;;;;;;28.77;6.85;;;27.00;99.90;;;;;;5034822;28;20037;-90
2021/01/14 07:45:04;;;;;;;27.15;6.25;;;26.60;99.90;;;;;;5033672;28;20112;-89
2021/01/14 07:47:37;;;;;;;25.58;7.22;;;26.60;99.90;;;;;;5037215;28;20029;-92
2021/01/14 07:50:26;;;;;;;33.33;8.02;;;26.40;99.90;;;;;;5050530;28;20072;-89
2021/01/14 07:52:55;;;;;;;42.28;9.63;;;26.00;99.90;;;;;;5046372;28;20116;-91
2021/01/14 07:55:36;;;;;;;46.08;10.98;;;25.80;99.90;;;;;;5041841;28;20543;-95
2021/01/14 07:58:23;;;;;;;43.40;9.52;;;25.40;99.90;;;;;;5052794;28;20075;-95
2021/01/14 08:01:06;;;;;;;48.47;11.90;;;25.00;99.90;;;;;;5054344;28;20035;-95
2021/01/14 08:03:37;;;;;;;49.92;12.63;;;24.70;99.90;;;;;;5050227;28;20033;-89
2021/01/14 08:06:17;;;;;;;41.15;11.50;;;24.50;99.90;;;;;;5037019;28;20131;-91
2021/01/14 08:08:56;;;;;;;31.92;10.30;;;24.50;99.90;;;;;;5045109;28;20470;-92
2021/01/14 08:11:24;;;;;;;38.38;12.40;;;24.20;99.90;;;;;;5054785;28;20025;-91
2021/01/14 08:14:08;;;;;;;49.22;12.55;;;24.00;99.90;;;;;;5098365;22;20064;-91
2021/01/14 08:16:43;;;;;;;53.50;12.73;;;23.70;99.90;;;;;;5073762;22;20427;-92
2021/01/14 08:19:12;;;;;;;46.55;13.18;;;23.60;99.90;;;;;;5078983;28;20284;-94
2021/01/14 08:21:39;;;;;;;40.92;11.48;;;23.50;99.90;;;;;;5060869;23;20064;-93
2021/01/14 08:24:47;;;;;;;50.80;14.35;;;23.60;99.90;;;;;;4977857;28;20359;-95
2021/01/14 08:27:36;;;;;;;46.70;13.95;;;23.60;99.90;;;;;;4984443;28;20477;-92
2021/01/14 08:30:19;;;;;;;50.42;13.65;;;23.60;99.90;;;;;;5063298;23;20048;-84
2021/01/14 08:32:50;;;;;;;40.08;12.50;;;23.50;99.90;;;;;;5069586;28;20431;-84
2021/01/14 08:35:17;;;;;;;47.90;14.00;;;23.40;99.90;;;;;;5054268;28;20493;-81
2021/01/14 08:37:53;;;;;;;53.42;15.40;;;23.30;99.90;;;;;;5072188;28;20017;-82
2021/01/14 08:40:27;;;;;;;46.83;12.85;;;23.30;99.90;;;;;;5052462;28;20032;-82
2021/01/14 08:43:13;;;;;;;52.50;13.55;;;23.30;99.90;;;;;;5052526;28;20027;-80
2021/01/14 08:45:54;;;;;;;45.03;13.25;;;23.30;99.90;;;;;;5071226;22;20052;-83
2021/01/14 08:48:33;;;;;;;57.30;15.27;;;23.30;99.90;;;;;;5037545;28;20036;-80
2021/01/14 08:51:01;;;;;;;54.92;15.52;;;23.20;99.90;;;;;;5043896;28;20606;-82
2021/01/14 08:53:33;;;;;;;56.03;15.50;;;22.90;99.90;;;;;;5052134;28;20025;-83
2021/01/14 08:56:02;;;;;;;56.33;13.68;;;22.70;99.90;;;;;;5047210;28;20025;-83
2021/01/14 08:58:35;;;;;;;56.58;15.65;;;22.70;99.90;;;;;;5045349;28;20558;-80
2021/01/14 09:01:03;;;;;;;49.58;13.52;;;22.60;99.90;;;;;;5049666;28;20037;-84
2021/01/14 09:03:30;;;;;;;53.72;13.13;;;22.70;99.90;;;;;;5042598;28;20026;-83
2021/01/14 09:05:58;;;;;;;48.30;14.63;;;22.60;99.90;;;;;;5016264;28;20025;-96
2021/01/14 09:08:25;;;;;;;47.13;13.90;;;22.60;99.90;;;;;;5024441;28;20116;-89
2021/01/14 09:10:57;;;;;;;50.50;14.25;;;22.60;99.90;;;;;;5034870;28;20095;-91
2021/01/14 09:13:33;;;;;;;52.00;13.45;;;22.40;99.90;;;;;;5048740;28;20026;-93
2021/01/14 09:16:09;;;;;;;50.95;13.90;;;22.40;99.90;;;;;;5032943;28;20463;-95
2021/01/14 09:18:38;;;;;;;42.95;14.43;;;22.40;99.90;;;;;;5048737;23;20090;-93
2021/01/14 09:21:05;;;;;;;52.35;13.52;;;22.40;99.90;;;;;;5052392;28;20033;-90
2021/01/14 09:23:35;;;;;;;50.70;13.32;;;22.30;99.90;;;;;;5053529;28;20025;-90
2021/01/14 09:26:23;;;;;;;42.65;12.30;;;22.30;99.90;;;;;;5049790;28;20505;-94
2021/01/14 09:28:52;;;;;;;46.83;12.63;;;22.40;99.90;;;;;;5031205;28;20043;-91
2021/01/14 09:31:21;;;;;;;47.17;12.68;;;22.40;99.90;;;;;;5033768;28;20037;-95
2021/01/14 09:33:50;;;;;;;45.92;12.13;;;22.40;99.90;;;;;;5033452;28;20544;-90
2021/01/14 09:36:24;;;;;;;55.40;12.63;;;22.30;99.90;;;;;;5033946;28;20433;-93
2021/01/14 09:38:57;;;;;;;52.97;12.57;;;22.40;99.90;;;;;;5037824;28;20032;-89
2021/01/14 09:41:32;;;;;;;45.00;10.75;;;22.30;99.90;;;;;;5051351;28;20111;-95
2021/01/14 09:44:05;;;;;;;50.42;12.75;;;22.30;99.90;;;;;;5044930;28;20025;-92
2021/01/14 09:46:37;;;;;;;46.22;11.43;;;22.30;99.90;;;;;;5040065;28;20430;-91
2021/01/14 09:49:07;;;;;;;48.15;12.18;;;22.30;99.90;;;;;;5041743;28;20083;-88
2021/01/14 09:51:36;;;;;;;42.13;11.40;;;22.20;99.90;;;;;;5036045;28;20425;-91
2021/01/14 09:54:10;;;;;;;49.63;12.70;;;22.20;99.90;;;;;;5037560;28;20037;-90
2021/01/14 09:56:47;;;;;;;48.13;11.48;;;22.20;99.90;;;;;;5031777;28;20053;-86
2021/01/14 09:59:19;;;;;;;45.42;11.13;;;22.20;99.90;;;;;;5044914;28;20433;-87
2021/01/14 10:02:03;;;;;;;49.13;10.70;;;22.30;99.90;;;;;;5051591;28;20021;-85
2021/01/14 10:04:33;;;;;;;54.17;11.50;;;22.20;99.90;;;;;;5047231;28;20025;-91
2021/01/14 10:07:06;;;;;;;41.05;12.27;;;22.20;99.90;;;;;;5055011;28;20029;-87
2021/01/14 10:09:37;;;;;;;42.53;9.75;;;22.10;99.90;;;;;;5053103;28;20032;-84
2021/01/14 10:12:06;;;;;;;42.78;11.63;;;22.10;99.90;;;;;;5046315;28;20029;-86
2021/01/14 10:14:34;;;;;;;46.30;11.80;;;22.10;99.90;;;;;;5041756;28;20025;-87
2021/01/14 10:17:15;;;;;;;45.75;11.95;;;22.10;99.90;;;;;;5036847;28;20478;-89
2021/01/14 10:19:48;;;;;;;44.22;11.52;;;22.10;99.90;;;;;;5055440;22;20049;-88
2021/01/14 10:22:15;;;;;;;39.40;10.77;;;22.10;99.90;;;;;;5049793;22;20077;-90
2021/01/14 10:24:43;;;;;;;54.33;12.52;;;22.20;99.90;;;;;;5060845;22;20084;-90
2021/01/14 10:27:21;;;;;;;42.78;10.15;;;22.10;99.90;;;;;;5055655;22;20435;-86
2021/01/14 10:29:49;;;;;;;41.70;10.80;;;22.10;99.90;;;;;;5074919;28;20074;-91
2021/01/14 10:32:22;;;;;;;40.50;10.15;;;22.10;99.90;;;;;;5074502;28;20028;-89
2021/01/14 10:34:54;;;;;;;34.65;9.60;;;22.20;99.90;;;;;;5073797;28;20554;-89
2021/01/14 10:37:27;;;;;;;38.70;10.88;;;22.20;99.90;;;;;;5065338;22;20074;-93
2021/01/14 10:39:59;;;;;;;42.30;10.63;;;22.20;99.90;;;;;;5038278;28;20139;-89
2021/01/14 10:42:34;;;;;;;43.08;9.75;;;22.10;99.90;;;;;;5047032;28;20025;-86
2021/01/14 10:45:13;;;;;;;37.00;9.65;;;22.10;99.90;;;;;;5034982;28;20050;-87
2021/01/14 10:47:42;;;;;;;42.40;10.15;;;22.10;99.90;;;;;;5035118;28;20410;-93
2021/01/14 10:50:22;;;;;;;38.88;10.10;;;22.20;99.90;;;;;;5045239;28;20160;-90
2021/01/14 10:53:03;;;;;;;45.35;9.63;;;22.10;99.90;;;;;;5041398;23;20049;-88
2021/01/14 10:55:34;;;;;;;42.17;10.40;;;22.00;99.90;;;;;;5074413;28;20036;-91
2021/01/14 10:58:04;;;;;;;39.83;10.30;;;22.00;99.90;;;;;;5060109;28;20021;-94
2021/01/14 11:00:41;;;;;;;48.67;11.20;;;22.10;99.90;;;;;;5067695;28;20055;-92
2021/01/14 11:03:14;;;;;;;44.92;10.93;;;22.10;99.90;;;;;;5069380;28;20024;-90
2021/01/14 11:05:47;;;;;;;40.50;9.65;;;22.10;99.90;;;;;;5060955;28;20087;-89
2021/01/14 11:08:25;;;;;;;49.83;9.90;;;22.00;99.90;;;;;;5068558;28;20084;-90
2021/01/14 11:11:15;;;;;;;41.38;9.57;;;22.10;99.90;;;;;;5059398;28;20044;-91
2021/01/14 11:13:45;;;;;;;50.70;10.20;;;22.10;99.90;;;;;;5067365;28;20547;-91
2021/01/14 11:16:14;;;;;;;41.80;9.02;;;22.10;99.90;;;;;;5046098;28;20399;-90
2021/01/14 11:18:46;;;;;;;41.15;9.00;;;22.10;99.90;;;;;;5067048;28;20020;-92
2021/01/14 11:21:15;;;;;;;38.13;9.75;;;22.10;99.90;;;;;;5046247;28;20107;-91
2021/01/14 11:23:42;;;;;;;50.90;9.95;;;22.00;99.90;;;;;;5067364;28;20025;-89
2021/01/14 11:26:16;;;;;;;37.17;8.57;;;22.10;99.90;;;;;;5078317;22;20048;-89
2021/01/14 11:28:43;;;;;;;;;;;22.10;99.90;;;;;;5046908;28;20029;-92
2021/01/14 11:31:15;;;;;;;38.03;8.18;;;22.10;99.90;;;;;;5044465;28;19909;-89
2021/01/14 11:33:43;;;;;;;40.35;7.85;;;22.10;99.90;;;;;;5035708;28;20107;-87
2021/01/14 11:36:11;;;;;;;36.70;8.02;;;22.00;99.90;;;;;;5022601;28;20033;-89
2021/01/14 11:38:40;;;;;;;38.55;8.80;;;22.00;99.90;;;;;;5039428;28;20021;-91
2021/01/14 11:41:08;;;;;;;43.47;9.20;;;22.00;99.90;;;;;;5040422;28;20033;-90
2021/01/14 11:43:36;;;;;;;43.80;8.43;;;22.00;99.90;;;;;;5028348;28;20063;-88
2021/01/14 11:46:04;;;;;;;36.75;7.82;;;22.00;99.90;;;;;;5032253;28;20469;-89
2021/01/14 11:48:31;;;;;;;34.22;7.78;;;22.00;99.90;;;;;;5052424;28;20175;-88
2021/01/14 11:50:58;;;;;;;42.50;9.43;;;21.90;99.90;;;;;;5052676;28;20033;-89
2021/01/14 11:53:25;;;;;;;43.38;9.75;;;22.00;99.90;;;;;;5033973;28;20018;-89
2021/01/14 11:55:53;;;;;;;39.40;7.78;;;22.00;99.90;;;;;;5036982;28;20040;-90
2021/01/14 11:58:20;;;;;;;41.50;8.90;;;22.00;99.90;;;;;;5043416;28;20013;-88
2021/01/14 12:00:48;;;;;;;45.05;9.25;;;22.00;99.90;;;;;;5039884;28;20021;-88
2021/01/14 12:03:15;;;;;;;42.15;8.70;;;22.00;99.90;;;;;;5043631;28;20033;-88
2021/01/14 12:05:42;;;;;;;37.70;8.38;;;22.00;99.90;;;;;;5036488;28;20030;-89
2021/01/14 12:08:10;;;;;;;38.78;8.10;;;22.00;99.90;;;;;;5016675;28;20030;-89
2021/01/14 12:10:37;;;;;;;37.85;8.30;;;22.00;99.90;;;;;;5047085;28;20034;-89
2021/01/14 12:13:04;;;;;;;39.65;8.65;;;22.00;99.90;;;;;;5051229;28;20025;-89
2021/01/14 12:15:31;;;;;;;35.30;7.45;;;21.90;99.90;;;;;;5038614;28;20030;-89
2021/01/14 12:17:59;;;;;;;36.42;8.45;;;21.90;99.90;;;;;;5045293;28;20035;-88
2021/01/14 12:20:26;;;;;;;38.97;7.80;;;22.00;99.90;;;;;;5050423;28;20025;-88
2021/01/14 12:22:53;;;;;;;31.40;7.10;;;21.90;99.90;;;;;;5046709;28;20029;-88
2021/01/14 12:25:20;;;;;;;32.85;7.50;;;21.90;99.90;;;;;;5049147;28;20035;-91
2021/01/14 12:27:48;;;;;;;34.45;8.20;;;21.90;99.90;;;;;;5063932;22;20053;-87
2021/01/14 12:30:15;;;;;;;33.35;7.75;;;21.80;99.90;;;;;;5069765;23;20049;-88
2021/01/14 12:32:42;;;;;;;39.42;8.55;;;21.80;99.90;;;;;;5068320;28;20048;-90
2021/01/14 12:35:12;;;;;;;31.75;6.85;;;21.80;99.90;;;;;;5065924;22;20525;-88
2021/01/14 12:37:40;;;;;;;37.20;6.93;;;21.80;99.90;;;;;;5031383;28;20548;-88
2021/01/14 12:40:11;;;;;;;39.85;8.18;;;21.80;99.90;;;;;;5031763;28;20025;-89
2021/01/14 12:42:38;;;;;;;36.63;7.40;;;21.80;99.90;;;;;;5031209;28;20389;-89
2021/01/14 12:45:07;;;;;;;36.75;7.60;;;21.80;99.90;;;;;;5050531;23;20136;-90
2021/01/14 12:47:34;;;;;;;31.83;8.00;;;21.80;99.90;;;;;;5034276;28;20443;-92
2021/01/14 12:50:01;;;;;;;39.00;7.38;;;21.80;99.90;;;;;;5052010;28;20040;-89
2021/01/14 12:52:29;;;;;;;39.45;8.75;;;21.80;99.90;;;;;;5034408;28;20025;-89
2021/01/14 12:54:56;;;;;;;29.73;6.68;;;21.70;99.90;;;;;;5050513;28;20075;-89
2021/01/14 12:57:24;;;;;;;35.47;5.97;;;21.70;99.90;;;;;;5032852;28;20049;-90
2021/01/14 12:59:51;;;;;;;40.65;6.65;;;21.70;99.90;;;;;;5050823;23;20049;-88